Madre Pilar — EA3035 — position and weather

sailwx.info

Track history (hours):
 
Tides and Currents Weather Stations Pressure Air Temp Water Temp Dewpoint Dewpoint Depression Visibility Wind Speed Wind Dir Waves Ship Positions

Madre Pilar

Last reported at 2017-Oct-19 07:48 UTC. Time now 2017-Oct-20 16:24 UTC.
Position N 43°27' W 003°28'.

Length 20 m.

Type: Fishing. MMSI: 224139890.

Date/timePositionNaut miles runAvg speedWind from/ knotsBaromVisibWave heightAir tempDewpointWater temp
2017-Oct-19 07:48N 43°27' W 003°28'0 0.0
2017-Oct-19 07:30N 43°27' W 003°28'0 0.0
2017-Oct-19 06:49N 43°27' W 003°28'0 0.1
2017-Oct-19 06:30N 43°27' W 003°28'0 0.0
2017-Oct-19 06:00N 43°27' W 003°28'0 0.0
2017-Oct-19 05:30N 43°27' W 003°28'0 0.0
2017-Oct-19 05:00N 43°27' W 003°28'0 0.1
2017-Oct-19 03:02N 43°27' W 003°28'0 3.5
2017-Oct-19 03:00N 43°26' W 003°28'3 6.4
2017-Oct-19 02:30N 43°27' W 003°24'4 8.2
2017-Oct-19 02:00N 43°29' W 003°19'4 7.7
2017-Oct-19 01:30N 43°32' W 003°14'4 7.7
2017-Oct-19 01:00N 43°34' W 003°10'4 7.7
2017-Oct-19 00:30N 43°36' W 003°06'4 7.7
2017-Oct-19 00:00N 43°38' W 003°01'4 7.8
2017-Oct-18 23:30N 43°40' W 002°56'4 7.7
2017-Oct-18 23:00N 43°42' W 002°52'4 7.5
2017-Oct-18 22:30N 43°44' W 002°48'4 7.4
2017-Oct-18 22:00N 43°47' W 002°44'4 7.8
2017-Oct-18 21:30N 43°49' W 002°39'4 8.0
2017-Oct-18 21:00N 43°51' W 002°35'4 8.0
2017-Oct-18 20:30N 43°53' W 002°30'4 8.0
2017-Oct-18 20:00N 43°56' W 002°26'4 8.4
2017-Oct-18 19:30N 43°58' W 002°21'4 8.3
2017-Oct-18 19:00N 44°01' W 002°16'4 8.2
2017-Oct-18 18:30N 44°03' W 002°12'4 7.7
2017-Oct-18 17:59N 44°05' W 002°07'0 0.6
2017-Oct-18 17:30N 44°05' W 002°07'0 1.0
2017-Oct-18 17:00N 44°04' W 002°07'0 1.0
2017-Oct-18 16:30N 44°04' W 002°07'1 1.1
2017-Oct-18 16:00N 44°03' W 002°07'0 0.7
2017-Oct-18 15:30N 44°03' W 002°07'2 3.5
2017-Oct-18 14:50N 44°05' W 002°07'0 0.6
2017-Oct-18 14:00N 44°06' W 002°06'0 0.7
2017-Oct-18 13:30N 44°06' W 002°06'0 0.7
2017-Oct-18 13:00N 44°06' W 002°06'1 1.4
2017-Oct-18 12:30N 44°07' W 002°06'0 0.8
2017-Oct-18 12:00N 44°07' W 002°06'0 0.6
2017-Oct-18 11:27N 44°06' W 002°06'2 1.2
2017-Oct-18 10:10N 44°08' W 002°06'0 0.6
2017-Oct-18 09:56N 44°08' W 002°06'0 0.5
2017-Oct-18 09:21N 44°08' W 002°06'0 0.4
2017-Oct-18 09:00N 44°08' W 002°06'0 0.5
2017-Oct-18 08:28N 44°09' W 002°06'0 0.4
2017-Oct-18 08:00N 44°09' W 002°06'0 0.2
2017-Oct-18 07:30N 44°09' W 002°06'0 0.3
2017-Oct-18 07:00N 44°09' W 002°06'0 0.3
2017-Oct-18 06:30N 44°08' W 002°06'0 0.4
2017-Oct-18 06:00N 44°08' W 002°06'0 0.7
2017-Oct-18 05:30N 44°09' W 002°06'0 0.3
2017-Oct-18 05:00N 44°09' W 002°06'1 2.3
2017-Oct-18 04:30N 44°07' W 002°06'2 3.5
2017-Oct-18 04:00N 44°06' W 002°06'2 3.6
2017-Oct-18 03:30N 44°04' W 002°07'1 2.5
2017-Oct-18 03:00N 44°03' W 002°08'0 0.4
2017-Oct-18 02:30N 44°03' W 002°07'0 0.5
2017-Oct-18 02:00N 44°02' W 002°08'0 0.4
2017-Oct-18 01:30N 44°02' W 002°08'0 1.0
2017-Oct-18 01:00N 44°03' W 002°08'0 1.0
2017-Oct-18 00:30N 44°03' W 002°07'0 0.6
2017-Oct-18 00:00N 44°03' W 002°07'0 0.5
2017-Oct-17 23:30N 44°03' W 002°07'2 4.4
2017-Oct-17 23:00N 44°05' W 002°06'2 4.5
2017-Oct-17 22:30N 44°07' W 002°06'1 2.3
2017-Oct-17 22:00N 44°09' W 002°06'0 0.7
2017-Oct-17 21:30N 44°08' W 002°06'0 0.8
2017-Oct-17 21:00N 44°08' W 002°06'0 1.0
2017-Oct-17 20:30N 44°07' W 002°06'0 0.8
2017-Oct-17 20:00N 44°07' W 002°06'0 0.9
2017-Oct-17 19:30N 44°07' W 002°06'0 1.0
2017-Oct-17 19:00N 44°06' W 002°06'0 0.8
2017-Oct-17 18:30N 44°06' W 002°06'0 0.9
2017-Oct-17 18:00N 44°05' W 002°07'0 0.9
2017-Oct-17 17:30N 44°05' W 002°07'0 0.8
2017-Oct-17 17:00N 44°04' W 002°07'0 1.0
2017-Oct-17 16:30N 44°04' W 002°07'0 0.4
2017-Oct-17 16:00N 44°04' W 002°07'0 0.4
2017-Oct-17 15:30N 44°04' W 002°07'6 1.4
2017-Oct-17 10:47N 44°10' W 002°05'0 0.9
2017-Oct-17 10:30N 44°10' W 002°05'0 0.6
2017-Oct-17 09:59N 44°10' W 002°05'0 0.4
2017-Oct-17 09:30N 44°10' W 002°05'0 0.8
2017-Oct-17 09:00N 44°10' W 002°05'0 0.9
2017-Oct-17 08:30N 44°10' W 002°05'0 0.6
2017-Oct-17 08:01N 44°10' W 002°05'0 0.5
2017-Oct-17 07:30N 44°10' W 002°05'1 1.2
2017-Oct-17 07:00N 44°09' W 002°05'1 1.1
2017-Oct-17 06:30N 44°10' W 002°05'0 0.3
2017-Oct-17 06:00N 44°10' W 002°06'0 0.6
2017-Oct-17 05:30N 44°10' W 002°05'0 0.4
2017-Oct-17 05:00N 44°10' W 002°05'1 2.3
2017-Oct-17 04:30N 44°09' W 002°06'2 3.6
2017-Oct-17 04:00N 44°07' W 002°06'2 3.6
2017-Oct-17 03:30N 44°05' W 002°07'2 3.7
2017-Oct-17 03:00N 44°04' W 002°07'2 3.1
2017-Oct-17 02:30N 44°02' W 002°08'1 1.0
2017-Oct-17 02:00N 44°03' W 002°08'0 0.5
2017-Oct-17 01:30N 44°03' W 002°08'0 0.3
2017-Oct-17 01:01N 44°02' W 002°08'0 0.2
2017-Oct-17 00:30N 44°02' W 002°07'0 0.3
2017-Oct-16 23:59N 44°02' W 002°07'0 0.3
2017-Oct-16 23:26N 44°03' W 002°07'2 3.9
2017-Oct-16 22:54N 44°05' W 002°07'1 3.2
2017-Oct-16 22:30N 44°06' W 002°06'0 0.4
2017-Oct-16 22:01N 44°06' W 002°06'0 0.9
2017-Oct-16 21:31N 44°05' W 002°06'0 0.7
2017-Oct-16 21:00N 44°05' W 002°07'0 0.9
2017-Oct-16 20:31N 44°04' W 002°07'0 0.8
2017-Oct-16 20:01N 44°04' W 002°07'0 0.8
2017-Oct-16 19:31N 44°04' W 002°07'0 0.9
2017-Oct-16 19:00N 44°03' W 002°07'0 0.8
2017-Oct-16 18:30N 44°03' W 002°07'0 0.8
2017-Oct-16 18:00N 44°02' W 002°08'0 0.7
2017-Oct-16 17:30N 44°02' W 002°08'0 0.8
2017-Oct-16 17:00N 44°02' W 002°08'0 0.6
2017-Oct-16 16:30N 44°02' W 002°08'4 7.0
2017-Oct-16 16:01N 44°05' W 002°07'1 2.8
2017-Oct-16 15:30N 44°06' W 002°06'0 0.1
2017-Oct-16 15:01N 44°06' W 002°06'1 1.8
2017-Oct-16 14:30N 44°07' W 002°06'0 0.4
2017-Oct-16 13:30N 44°08' W 002°06'0 0.8
2017-Oct-16 12:59N 44°08' W 002°06'0 0.7
2017-Oct-16 12:31N 44°08' W 002°06'0 0.8
2017-Oct-16 12:01N 44°09' W 002°06'0 0.5
2017-Oct-16 11:30N 44°08' W 002°06'1 1.6
2017-Oct-16 11:00N 44°09' W 002°06'0 0.4
2017-Oct-16 10:31N 44°09' W 002°06'0 0.2
2017-Oct-16 10:00N 44°09' W 002°06'0 0.3
2017-Oct-16 09:30N 44°09' W 002°05'1 1.5
2017-Oct-16 09:00N 44°10' W 002°06'0 0.8
2017-Oct-16 08:30N 44°09' W 002°06'0 0.7
2017-Oct-16 08:01N 44°09' W 002°06'1 1.4
2017-Oct-16 07:30N 44°10' W 002°05'0 0.6
2017-Oct-16 07:00N 44°10' W 002°05'0 0.5
2017-Oct-16 06:30N 44°09' W 002°06'1 1.5
2017-Oct-16 06:00N 44°09' W 002°06'4 7.6
2017-Oct-16 05:30N 44°05' W 002°07'4 7.7
2017-Oct-16 05:00N 44°01' W 002°08'1 2.8
2017-Oct-16 04:30N 44°02' W 002°08'2 3.3
2017-Oct-16 04:00N 44°04' W 002°07'2 3.5
2017-Oct-16 03:31N 44°06' W 002°06'2 3.5
2017-Oct-16 03:01N 44°07' W 002°06'2 3.5
2017-Oct-16 02:30N 44°09' W 002°06'2 3.3
2017-Oct-16 02:00N 44°11' W 002°06'0 0.2
2017-Oct-16 01:31N 44°11' W 002°06'0 0.7
2017-Oct-16 01:00N 44°10' W 002°06'0 0.7
2017-Oct-16 00:30N 44°10' W 002°06'0 0.6
2017-Oct-16 00:01N 44°10' W 002°05'0 0.6
2017-Oct-15 23:30N 44°10' W 002°05'0 0.7
2017-Oct-15 23:01N 44°09' W 002°05'2 3.7
2017-Oct-15 22:31N 44°08' W 002°05'3 5.1
2017-Oct-15 22:00N 44°05' W 002°06'3 5.2
2017-Oct-15 21:30N 44°03' W 002°08'1 3.0
2017-Oct-15 21:01N 44°01' W 002°08'0 0.6
2017-Oct-15 20:31N 44°01' W 002°08'0 0.6
2017-Oct-15 20:01N 44°01' W 002°08'0 0.4
2017-Oct-15 19:31N 44°01' W 002°08'0 0.6
2017-Oct-15 19:00N 44°00' W 002°08'0 0.8
2017-Oct-15 18:30N 43°60' W 002°08'0 0.7
2017-Oct-15 18:01N 43°60' W 002°09'0 0.5
2017-Oct-15 17:31N 43°59' W 002°09'0 0.8
2017-Oct-15 17:01N 43°59' W 002°09'0 0.7
2017-Oct-15 16:30N 43°59' W 002°09'0 0.6
2017-Oct-15 16:01N 43°58' W 002°09'0 0.8
2017-Oct-15 15:30N 43°58' W 002°09'0 0.6
2017-Oct-15 15:00N 43°58' W 002°09'1 0.8
2017-Oct-15 14:00N 43°57' W 002°09'0 0.6
2017-Oct-15 13:31N 43°57' W 002°09'0 0.8
2017-Oct-15 13:00N 43°56' W 002°09'0 0.8
2017-Oct-15 12:30N 43°56' W 002°10'0 0.8
2017-Oct-15 12:01N 43°55' W 002°10'0 0.7
2017-Oct-15 11:30N 43°55' W 002°10'0 0.7
2017-Oct-15 11:00N 43°55' W 002°10'0 0.7
2017-Oct-15 10:31N 43°54' W 002°10'0 0.3
2017-Oct-15 10:01N 43°54' W 002°10'0 0.7
2017-Oct-15 09:30N 43°54' W 002°10'0 0.6
2017-Oct-15 09:01N 43°54' W 002°10'0 0.2
2017-Oct-15 08:31N 43°54' W 002°10'0 0.4
2017-Oct-15 08:01N 43°55' W 002°10'0 0.8
2017-Oct-15 07:30N 43°54' W 002°10'0 0.7
2017-Oct-15 07:00N 43°54' W 002°10'0 0.6
2017-Oct-15 06:31N 43°54' W 002°10'0 0.8
2017-Oct-15 06:00N 43°54' W 002°10'0 0.6
2017-Oct-15 05:30N 43°54' W 002°10'1 1.2
2017-Oct-15 05:01N 43°55' W 002°10'1 2.5
2017-Oct-15 04:31N 43°56' W 002°10'2 3.2
2017-Oct-15 04:01N 43°57' W 002°09'1 3.0
2017-Oct-15 03:31N 43°59' W 002°09'1 2.4
2017-Oct-15 03:00N 44°00' W 002°08'1 2.4
2017-Oct-15 02:31N 44°01' W 002°08'0 0.8
2017-Oct-15 02:00N 44°01' W 002°07'0 0.8
2017-Oct-15 01:30N 44°01' W 002°07'2 3.0
2017-Oct-15 01:00N 44°02' W 002°08'1 1.5
2017-Oct-15 00:30N 44°03' W 002°09'0 0.8
2017-Oct-15 00:00N 44°02' W 002°08'0 0.7
2017-Oct-14 23:31N 44°02' W 002°08'0 0.8
2017-Oct-14 23:01N 44°02' W 002°08'3 5.6
2017-Oct-14 22:30N 43°59' W 002°09'2 3.6
2017-Oct-14 22:01N 43°57' W 002°09'0 0.7
2017-Oct-14 21:30N 43°57' W 002°09'0 0.7
2017-Oct-14 21:00N 43°57' W 002°10'0 0.3
2017-Oct-14 20:30N 43°56' W 002°09'2 3.0
2017-Oct-14 20:01N 43°58' W 002°10'0 0.6
2017-Oct-14 19:31N 43°58' W 002°09'0 0.7
2017-Oct-14 19:01N 43°59' W 002°09'0 0.8
2017-Oct-14 18:30N 43°59' W 002°09'0 0.8
2017-Oct-14 18:01N 43°59' W 002°09'0 0.7
2017-Oct-14 17:31N 43°60' W 002°09'0 0.8
2017-Oct-14 17:00N 44°00' W 002°09'0 0.6
2017-Oct-14 16:30N 44°00' W 002°09'0 0.7
2017-Oct-14 16:00N 44°01' W 002°08'0 0.7
2017-Oct-14 15:31N 44°01' W 002°08'0 0.2
2017-Oct-14 15:00N 44°01' W 002°08'2 4.1
2017-Oct-14 14:31N 43°59' W 002°09'3 6.5
2017-Oct-14 14:00N 43°56' W 002°10'0 0.9
2017-Oct-14 13:31N 43°55' W 002°10'0 0.7
2017-Oct-14 13:00N 43°55' W 002°10'0 0.4
2017-Oct-14 12:31N 43°55' W 002°10'0 0.3
2017-Oct-14 12:01N 43°55' W 002°10'1 1.7
2017-Oct-14 11:31N 43°54' W 002°10'0 0.7
2017-Oct-14 11:00N 43°54' W 002°10'0 1.0
2017-Oct-14 10:31N 43°53' W 002°10'0 0.7
2017-Oct-14 10:00N 43°53' W 002°10'0 0.1
2017-Oct-14 09:31N 43°53' W 002°10'0 0.1
2017-Oct-14 09:00N 43°53' W 002°10'0 0.2
2017-Oct-14 08:30N 43°53' W 002°10'0 0.3
2017-Oct-14 08:01N 43°53' W 002°10'0 0.1
2017-Oct-14 07:30N 43°53' W 002°10'0 0.3
2017-Oct-14 07:01N 43°53' W 002°10'0 0.4
2017-Oct-14 06:30N 43°53' W 002°10'0 0.4
2017-Oct-14 06:00N 43°53' W 002°10'0 0.6
2017-Oct-14 05:29N 43°52' W 002°10'0 0.8
2017-Oct-14 05:01N 43°53' W 002°10'2 3.7
2017-Oct-14 04:30N 43°55' W 002°10'2 3.6
2017-Oct-14 04:00N 43°56' W 002°10'2 3.6
2017-Oct-14 03:28N 43°58' W 002°09'3 3.2
2017-Oct-14 02:27N 44°01' W 002°08'1 1.7
2017-Oct-14 02:00N 44°01' W 002°08'2 3.6
2017-Oct-14 01:30N 44°00' W 002°05'0 0.6
2017-Oct-14 01:00N 44°00' W 002°06'0 0.5
2017-Oct-14 00:30N 44°00' W 002°06'0 0.6
2017-Oct-14 00:00N 43°60' W 002°06'0 0.6
2017-Oct-13 23:30N 43°60' W 002°07'0 0.8
2017-Oct-13 23:00N 43°60' W 002°07'3 6.8
2017-Oct-13 22:30N 43°57' W 002°09'4 7.7
2017-Oct-13 22:01N 43°53' W 002°10'4 7.8
2017-Oct-13 21:30N 43°49' W 002°11'4 7.7
2017-Oct-13 21:01N 43°45' W 002°13'4 7.6
2017-Oct-13 20:31N 43°42' W 002°15'4 7.4
2017-Oct-13 20:00N 43°38' W 002°16'4 7.5
2017-Oct-13 19:30N 43°35' W 002°18'4 7.2
2017-Oct-13 19:01N 43°31' W 002°19'3 6.6
2017-Oct-13 18:30N 43°28' W 002°21'3 6.8
2017-Oct-13 18:00N 43°25' W 002°22'3 6.8
2017-Oct-13 17:31N 43°22' W 002°24'2 1.0
2017-Oct-13 15:10N 43°19' W 002°25'0 0.0
2017-Oct-13 13:56N 43°19' W 002°25'0 0.0
2017-Oct-13 13:30N 43°19' W 002°25'0 0.0
2017-Oct-13 13:01N 43°19' W 002°25'0 0.0
2017-Oct-13 12:31N 43°19' W 002°25'0 0.0
2017-Oct-13 12:00N 43°19' W 002°25'0 0.0
2017-Oct-13 11:31N 43°19' W 002°25'0 0.0
2017-Oct-13 10:11N 43°19' W 002°25'0 0.0
2017-Oct-13 09:59N 43°19' W 002°25'0 0.0
2017-Oct-13 07:54N 43°20' W 002°25'0 0.1
2017-Oct-13 07:30N 43°19' W 002°25'0 0.0
2017-Oct-13 06:59N 43°19' W 002°25'0 0.0
2017-Oct-13 06:24N 43°19' W 002°25'0 0.0
2017-Oct-13 06:00N 43°19' W 002°25'0 0.0
2017-Oct-13 05:25N 43°19' W 002°25'0 0.0
2017-Oct-13 04:43N 43°19' W 002°25'0 0.0
2017-Oct-13 04:30N 43°19' W 002°25'0 0.0
2017-Oct-13 03:55N 43°19' W 002°25'0 0.0
2017-Oct-13 03:30N 43°19' W 002°25'0 0.0
2017-Oct-13 02:58N 43°19' W 002°25'0 0.0
2017-Oct-13 02:25N 43°19' W 002°25'0 0.0
2017-Oct-13 01:59N 43°19' W 002°25'0 0.0
2017-Oct-13 01:24N 43°19' W 002°25'0 0.0
2017-Oct-13 01:00N 43°19' W 002°25'0 0.0
2017-Oct-13 00:30N 43°19' W 002°25'0 0.0
2017-Oct-13 00:00N 43°19' W 002°25'0 0.0
2017-Oct-12 23:26N 43°19' W 002°25'0 0.0
2017-Oct-12 22:55N 43°19' W 002°25'0 0.0
2017-Oct-12 22:29N 43°19' W 002°25'2 3.7
2017-Oct-12 22:00N 43°21' W 002°24'2 4.2
2017-Oct-12 21:30N 43°23' W 002°24'2 3.1
2017-Oct-12 21:00N 43°25' W 002°24'1 2.7
2017-Oct-12 20:30N 43°26' W 002°24'1 2.4
2017-Oct-12 20:00N 43°27' W 002°24'2 4.8
2017-Oct-12 19:31N 43°30' W 002°24'1 2.5
2017-Oct-12 19:00N 43°31' W 002°23'0 0.6
2017-Oct-12 18:31N 43°31' W 002°23'0 1.0
2017-Oct-12 18:00N 43°32' W 002°23'0 0.7
2017-Oct-12 17:30N 43°32' W 002°23'1 3.0
2017-Oct-12 17:00N 43°31' W 002°23'0 0.4
2017-Oct-12 16:30N 43°30' W 002°23'0 0.4
2017-Oct-12 16:00N 43°31' W 002°23'0 0.7
2017-Oct-12 15:30N 43°31' W 002°22'0 0.9
2017-Oct-12 15:00N 43°31' W 002°22'0 0.6
2017-Oct-12 14:30N 43°31' W 002°22'2 3.7
2017-Oct-12 14:01N 43°32' W 002°24'0 0.4
2017-Oct-12 13:30N 43°32' W 002°24'0 0.6
2017-Oct-12 13:00N 43°31' W 002°24'0 0.7
2017-Oct-12 12:30N 43°31' W 002°25'0 0.7
2017-Oct-12 12:00N 43°31' W 002°25'0 0.9
2017-Oct-12 11:30N 43°32' W 002°26'0 0.8
2017-Oct-12 11:00N 43°32' W 002°26'0 0.7
2017-Oct-12 10:31N 43°32' W 002°26'0 0.7
2017-Oct-12 10:01N 43°32' W 002°27'0 0.3
2017-Oct-12 09:31N 43°33' W 002°27'0 0.1
2017-Oct-12 09:01N 43°32' W 002°27'0 0.1
2017-Oct-12 08:30N 43°33' W 002°27'0 0.2
2017-Oct-12 08:01N 43°32' W 002°27'0 0.2
2017-Oct-12 07:31N 43°32' W 002°27'0 0.3
2017-Oct-12 07:01N 43°33' W 002°26'0 0.0
2017-Oct-11 23:04N 43°33' W 002°27'0 0.1
2017-Oct-11 23:00N 43°33' W 002°27'0 0.3
2017-Oct-11 22:31N 43°32' W 002°27'0 0.2
2017-Oct-11 22:01N 43°32' W 002°27'0 0.2
2017-Oct-11 21:30N 43°32' W 002°27'0 0.2
2017-Oct-11 21:01N 43°32' W 002°27'2 4.9
2017-Oct-11 20:31N 43°32' W 002°24'2 4.2
2017-Oct-11 20:00N 43°31' W 002°21'1 2.7
2017-Oct-11 19:31N 43°32' W 002°21'0 0.7
2017-Oct-11 19:01N 43°32' W 002°21'0 0.7
2017-Oct-11 18:30N 43°32' W 002°22'0 0.7
2017-Oct-11 18:00N 43°31' W 002°22'0 0.6
2017-Oct-11 17:31N 43°31' W 002°22'0 0.8
2017-Oct-11 17:01N 43°31' W 002°22'4 0.2
2017-Oct-11 00:00N 43°32' W 002°27'0 0.3
2017-Oct-10 23:30N 43°32' W 002°27'3 5.2
2017-Oct-10 23:00N 43°33' W 002°30'4 7.4
2017-Oct-10 22:30N 43°33' W 002°35'4 7.2
2017-Oct-10 22:00N 43°34' W 002°40'4 7.1
2017-Oct-10 21:30N 43°34' W 002°45'4 7.1
2017-Oct-10 21:00N 43°34' W 002°50'4 7.2
2017-Oct-10 20:30N 43°35' W 002°55'1 3.0
2017-Oct-10 20:00N 43°35' W 002°57'0 0.6
2017-Oct-10 19:30N 43°35' W 002°57'0 0.6
2017-Oct-10 19:00N 43°36' W 002°56'0 0.9
2017-Oct-10 18:30N 43°36' W 002°56'0 0.7
2017-Oct-10 18:00N 43°36' W 002°56'0 0.4
2017-Oct-10 17:30N 43°37' W 002°56'0 0.6
2017-Oct-10 16:59N 43°37' W 002°57'0 0.7
2017-Oct-10 16:30N 43°37' W 002°57'0 0.6
2017-Oct-10 16:00N 43°37' W 002°58'2 2.9
2017-Oct-10 15:20N 43°36' W 003°00'1 2.3
2017-Oct-10 14:41N 43°36' W 003°02'0 0.7
2017-Oct-10 14:00N 43°36' W 003°03'0 0.8
2017-Oct-10 13:30N 43°36' W 003°04'1 0.9
2017-Oct-10 12:51N 43°36' W 003°04'0 0.8
2017-Oct-10 12:30N 43°36' W 003°05'0 0.9
2017-Oct-10 12:00N 43°36' W 003°05'0 0.7
2017-Oct-10 11:30N 43°36' W 003°06'0 0.9
2017-Oct-10 11:00N 43°36' W 003°07'0 0.8
2017-Oct-10 10:30N 43°36' W 003°07'0 0.5
2017-Oct-10 10:00N 43°36' W 003°07'0 0.3
2017-Oct-10 09:30N 43°36' W 003°08'0 0.1
2017-Oct-10 09:00N 43°36' W 003°08'0 0.1
2017-Oct-10 08:30N 43°36' W 003°08'0 0.1
2017-Oct-10 08:00N 43°36' W 003°08'0 0.3
2017-Oct-10 07:30N 43°36' W 003°08'0 0.6
2017-Oct-10 07:00N 43°36' W 003°07'0 0.9
2017-Oct-10 06:30N 43°36' W 003°08'0 0.2
2017-Oct-10 06:00N 43°36' W 003°08'3 5.3
2017-Oct-10 05:30N 43°36' W 003°04'3 7.1
2017-Oct-10 05:00N 43°36' W 002°59'2 4.1
2017-Oct-10 04:30N 43°35' W 002°56'1 2.9
2017-Oct-10 04:00N 43°37' W 002°56'2 4.6
2017-Oct-10 03:28N 43°37' W 002°60'3 5.6
2017-Oct-10 02:59N 43°36' W 003°03'2 3.5
2017-Oct-10 02:30N 43°36' W 003°06'2 3.0
2017-Oct-10 02:00N 43°36' W 003°08'0 0.2
2017-Oct-10 01:30N 43°36' W 003°08'0 0.6
2017-Oct-10 01:00N 43°36' W 003°07'0 0.3
2017-Oct-10 00:29N 43°36' W 003°07'0 0.3
2017-Oct-10 00:00N 43°36' W 003°07'0 0.8
2017-Oct-09 23:30N 43°36' W 003°08'0 0.3
2017-Oct-09 23:00N 43°36' W 003°08'0 0.4
2017-Oct-09 22:30N 43°36' W 003°08'0 0.6
2017-Oct-09 22:00N 43°36' W 003°08'0 0.5
2017-Oct-09 21:30N 43°36' W 003°08'1 2.5
2017-Oct-09 21:00N 43°36' W 003°06'3 5.0
2017-Oct-09 20:30N 43°37' W 003°02'0 0.9
2017-Oct-09 20:00N 43°36' W 003°03'3 6.9
2017-Oct-09 19:30N 43°36' W 003°08'4 7.2
2017-Oct-09 18:59N 43°34' W 003°12'3 6.9
2017-Oct-09 18:30N 43°32' W 003°15'3 6.8
2017-Oct-09 18:00N 43°30' W 003°19'3 6.9
2017-Oct-09 17:30N 43°28' W 003°23'3 6.4
2017-Oct-09 17:00N 43°26' W 003°27'1 1.5
2017-Oct-09 16:27N 43°27' W 003°28'0 0.0
2017-Oct-09 16:00N 43°27' W 003°28'0 0.0
2017-Oct-09 15:30N 43°27' W 003°28'0 0.0
2017-Oct-09 15:00N 43°27' W 003°28'0 0.0
2017-Oct-09 14:29N 43°27' W 003°28'0 0.0
2017-Oct-09 14:00N 43°27' W 003°28'0 0.0
2017-Oct-09 13:30N 43°27' W 003°28'0 0.0
2017-Oct-09 13:00N 43°27' W 003°28'0 0.0
2017-Oct-09 12:30N 43°27' W 003°28'0 0.0
2017-Oct-09 12:00N 43°27' W 003°28'0 0.0
2017-Oct-09 11:30N 43°27' W 003°28'0 0.0
2017-Oct-09 10:59N 43°27' W 003°28'0 0.0
2017-Oct-09 10:30N 43°27' W 003°28'0 0.0
2017-Oct-09 10:00N 43°27' W 003°28'0 0.0
2017-Oct-09 09:30N 43°27' W 003°28'0 0.0
2017-Oct-09 08:59N 43°27' W 003°28'0 0.0
2017-Oct-09 08:30N 43°27' W 003°28'0 0.0
2017-Oct-09 08:00N 43°27' W 003°28'  
Track history (hours):
 
Tides and Currents Weather Stations Pressure Air Temp Water Temp Dewpoint Dewpoint Depression Visibility Wind Speed Wind Dir Waves Ship Positions

Madre Pilar

Last reported at 2017-Oct-19 07:48 UTC. Time now 2017-Oct-20 16:24 UTC.
Position N 43°27' W 003°28'.

Length 20 m.

Type: Fishing. MMSI: 224139890.

Date/timePositionNaut miles runAvg speedWind from/ knotsBaromVisibWave heightAir tempDewpointWater temp
2017-Oct-19 07:48N 43°27' W 003°28'0 0.0
2017-Oct-19 07:30N 43°27' W 003°28'0 0.0
2017-Oct-19 06:49N 43°27' W 003°28'0 0.1
2017-Oct-19 06:30N 43°27' W 003°28'0 0.0
2017-Oct-19 06:00N 43°27' W 003°28'0 0.0
2017-Oct-19 05:30N 43°27' W 003°28'0 0.0
2017-Oct-19 05:00N 43°27' W 003°28'0 0.1
2017-Oct-19 03:02N 43°27' W 003°28'0 3.5
2017-Oct-19 03:00N 43°26' W 003°28'3 6.4
2017-Oct-19 02:30N 43°27' W 003°24'4 8.2
2017-Oct-19 02:00N 43°29' W 003°19'4 7.7
2017-Oct-19 01:30N 43°32' W 003°14'4 7.7
2017-Oct-19 01:00N 43°34' W 003°10'4 7.7
2017-Oct-19 00:30N 43°36' W 003°06'4 7.7
2017-Oct-19 00:00N 43°38' W 003°01'4 7.8
2017-Oct-18 23:30N 43°40' W 002°56'4 7.7
2017-Oct-18 23:00N 43°42' W 002°52'4 7.5
2017-Oct-18 22:30N 43°44' W 002°48'4 7.4
2017-Oct-18 22:00N 43°47' W 002°44'4 7.8
2017-Oct-18 21:30N 43°49' W 002°39'4 8.0
2017-Oct-18 21:00N 43°51' W 002°35'4 8.0
2017-Oct-18 20:30N 43°53' W 002°30'4 8.0
2017-Oct-18 20:00N 43°56' W 002°26'4 8.4
2017-Oct-18 19:30N 43°58' W 002°21'4 8.3
2017-Oct-18 19:00N 44°01' W 002°16'4 8.2
2017-Oct-18 18:30N 44°03' W 002°12'4 7.7
2017-Oct-18 17:59N 44°05' W 002°07'0 0.6
2017-Oct-18 17:30N 44°05' W 002°07'0 1.0
2017-Oct-18 17:00N 44°04' W 002°07'0 1.0
2017-Oct-18 16:30N 44°04' W 002°07'1 1.1
2017-Oct-18 16:00N 44°03' W 002°07'0 0.7
2017-Oct-18 15:30N 44°03' W 002°07'2 3.5
2017-Oct-18 14:50N 44°05' W 002°07'0 0.6
2017-Oct-18 14:00N 44°06' W 002°06'0 0.7
2017-Oct-18 13:30N 44°06' W 002°06'0 0.7
2017-Oct-18 13:00N 44°06' W 002°06'1 1.4
2017-Oct-18 12:30N 44°07' W 002°06'0 0.8
2017-Oct-18 12:00N 44°07' W 002°06'0 0.6
2017-Oct-18 11:27N 44°06' W 002°06'2 1.2
2017-Oct-18 10:10N 44°08' W 002°06'0 0.6
2017-Oct-18 09:56N 44°08' W 002°06'0 0.5
2017-Oct-18 09:21N 44°08' W 002°06'0 0.4
2017-Oct-18 09:00N 44°08' W 002°06'0 0.5
2017-Oct-18 08:28N 44°09' W 002°06'0 0.4
2017-Oct-18 08:00N 44°09' W 002°06'0 0.2
2017-Oct-18 07:30N 44°09' W 002°06'0 0.3
2017-Oct-18 07:00N 44°09' W 002°06'0 0.3
2017-Oct-18 06:30N 44°08' W 002°06'0 0.4
2017-Oct-18 06:00N 44°08' W 002°06'0 0.7
2017-Oct-18 05:30N 44°09' W 002°06'0 0.3
2017-Oct-18 05:00N 44°09' W 002°06'1 2.3
2017-Oct-18 04:30N 44°07' W 002°06'2 3.5
2017-Oct-18 04:00N 44°06' W 002°06'2 3.6
2017-Oct-18 03:30N 44°04' W 002°07'1 2.5
2017-Oct-18 03:00N 44°03' W 002°08'0 0.4
2017-Oct-18 02:30N 44°03' W 002°07'0 0.5
2017-Oct-18 02:00N 44°02' W 002°08'0 0.4
2017-Oct-18 01:30N 44°02' W 002°08'0 1.0
2017-Oct-18 01:00N 44°03' W 002°08'0 1.0
2017-Oct-18 00:30N 44°03' W 002°07'0 0.6
2017-Oct-18 00:00N 44°03' W 002°07'0 0.5
2017-Oct-17 23:30N 44°03' W 002°07'2 4.4
2017-Oct-17 23:00N 44°05' W 002°06'2 4.5
2017-Oct-17 22:30N 44°07' W 002°06'1 2.3
2017-Oct-17 22:00N 44°09' W 002°06'0 0.7
2017-Oct-17 21:30N 44°08' W 002°06'0 0.8
2017-Oct-17 21:00N 44°08' W 002°06'0 1.0
2017-Oct-17 20:30N 44°07' W 002°06'0 0.8
2017-Oct-17 20:00N 44°07' W 002°06'0 0.9
2017-Oct-17 19:30N 44°07' W 002°06'0 1.0
2017-Oct-17 19:00N 44°06' W 002°06'0 0.8
2017-Oct-17 18:30N 44°06' W 002°06'0 0.9
2017-Oct-17 18:00N 44°05' W 002°07'0 0.9
2017-Oct-17 17:30N 44°05' W 002°07'0 0.8
2017-Oct-17 17:00N 44°04' W 002°07'0 1.0
2017-Oct-17 16:30N 44°04' W 002°07'0 0.4
2017-Oct-17 16:00N 44°04' W 002°07'0 0.4
2017-Oct-17 15:30N 44°04' W 002°07'6 1.4
2017-Oct-17 10:47N 44°10' W 002°05'0 0.9
2017-Oct-17 10:30N 44°10' W 002°05'0 0.6
2017-Oct-17 09:59N 44°10' W 002°05'0 0.4
2017-Oct-17 09:30N 44°10' W 002°05'0 0.8
2017-Oct-17 09:00N 44°10' W 002°05'0 0.9
2017-Oct-17 08:30N 44°10' W 002°05'0 0.6
2017-Oct-17 08:01N 44°10' W 002°05'0 0.5
2017-Oct-17 07:30N 44°10' W 002°05'1 1.2
2017-Oct-17 07:00N 44°09' W 002°05'1 1.1
2017-Oct-17 06:30N 44°10' W 002°05'0 0.3
2017-Oct-17 06:00N 44°10' W 002°06'0 0.6
2017-Oct-17 05:30N 44°10' W 002°05'0 0.4
2017-Oct-17 05:00N 44°10' W 002°05'1 2.3
2017-Oct-17 04:30N 44°09' W 002°06'2 3.6
2017-Oct-17 04:00N 44°07' W 002°06'2 3.6
2017-Oct-17 03:30N 44°05' W 002°07'2 3.7
2017-Oct-17 03:00N 44°04' W 002°07'2 3.1
2017-Oct-17 02:30N 44°02' W 002°08'1 1.0
2017-Oct-17 02:00N 44°03' W 002°08'0 0.5
2017-Oct-17 01:30N 44°03' W 002°08'0 0.3
2017-Oct-17 01:01N 44°02' W 002°08'0 0.2
2017-Oct-17 00:30N 44°02' W 002°07'0 0.3
2017-Oct-16 23:59N 44°02' W 002°07'0 0.3
2017-Oct-16 23:26N 44°03' W 002°07'2 3.9
2017-Oct-16 22:54N 44°05' W 002°07'1 3.2
2017-Oct-16 22:30N 44°06' W 002°06'0 0.4
2017-Oct-16 22:01N 44°06' W 002°06'0 0.9
2017-Oct-16 21:31N 44°05' W 002°06'0 0.7
2017-Oct-16 21:00N 44°05' W 002°07'0 0.9
2017-Oct-16 20:31N 44°04' W 002°07'0 0.8
2017-Oct-16 20:01N 44°04' W 002°07'0 0.8
2017-Oct-16 19:31N 44°04' W 002°07'0 0.9
2017-Oct-16 19:00N 44°03' W 002°07'0 0.8
2017-Oct-16 18:30N 44°03' W 002°07'0 0.8
2017-Oct-16 18:00N 44°02' W 002°08'0 0.7
2017-Oct-16 17:30N 44°02' W 002°08'0 0.8
2017-Oct-16 17:00N 44°02' W 002°08'0 0.6
2017-Oct-16 16:30N 44°02' W 002°08'4 7.0
2017-Oct-16 16:01N 44°05' W 002°07'1 2.8
2017-Oct-16 15:30N 44°06' W 002°06'0 0.1
2017-Oct-16 15:01N 44°06' W 002°06'1 1.8
2017-Oct-16 14:30N 44°07' W 002°06'0 0.4
2017-Oct-16 13:30N 44°08' W 002°06'0 0.8
2017-Oct-16 12:59N 44°08' W 002°06'0 0.7
2017-Oct-16 12:31N 44°08' W 002°06'0 0.8
2017-Oct-16 12:01N 44°09' W 002°06'0 0.5
2017-Oct-16 11:30N 44°08' W 002°06'1 1.6
2017-Oct-16 11:00N 44°09' W 002°06'0 0.4
2017-Oct-16 10:31N 44°09' W 002°06'0 0.2
2017-Oct-16 10:00N 44°09' W 002°06'0 0.3
2017-Oct-16 09:30N 44°09' W 002°05'1 1.5
2017-Oct-16 09:00N 44°10' W 002°06'0 0.8
2017-Oct-16 08:30N 44°09' W 002°06'0 0.7
2017-Oct-16 08:01N 44°09' W 002°06'1 1.4
2017-Oct-16 07:30N 44°10' W 002°05'0 0.6
2017-Oct-16 07:00N 44°10' W 002°05'0 0.5
2017-Oct-16 06:30N 44°09' W 002°06'1 1.5
2017-Oct-16 06:00N 44°09' W 002°06'4 7.6
2017-Oct-16 05:30N 44°05' W 002°07'4 7.7
2017-Oct-16 05:00N 44°01' W 002°08'1 2.8
2017-Oct-16 04:30N 44°02' W 002°08'2 3.3
2017-Oct-16 04:00N 44°04' W 002°07'2 3.5
2017-Oct-16 03:31N 44°06' W 002°06'2 3.5
2017-Oct-16 03:01N 44°07' W 002°06'2 3.5
2017-Oct-16 02:30N 44°09' W 002°06'2 3.3
2017-Oct-16 02:00N 44°11' W 002°06'0 0.2
2017-Oct-16 01:31N 44°11' W 002°06'0 0.7
2017-Oct-16 01:00N 44°10' W 002°06'0 0.7
2017-Oct-16 00:30N 44°10' W 002°06'0 0.6
2017-Oct-16 00:01N 44°10' W 002°05'0 0.6
2017-Oct-15 23:30N 44°10' W 002°05'0 0.7
2017-Oct-15 23:01N 44°09' W 002°05'2 3.7
2017-Oct-15 22:31N 44°08' W 002°05'3 5.1
2017-Oct-15 22:00N 44°05' W 002°06'3 5.2
2017-Oct-15 21:30N 44°03' W 002°08'1 3.0
2017-Oct-15 21:01N 44°01' W 002°08'0 0.6
2017-Oct-15 20:31N 44°01' W 002°08'0 0.6
2017-Oct-15 20:01N 44°01' W 002°08'0 0.4
2017-Oct-15 19:31N 44°01' W 002°08'0 0.6
2017-Oct-15 19:00N 44°00' W 002°08'0 0.8
2017-Oct-15 18:30N 43°60' W 002°08'0 0.7
2017-Oct-15 18:01N 43°60' W 002°09'0 0.5
2017-Oct-15 17:31N 43°59' W 002°09'0 0.8
2017-Oct-15 17:01N 43°59' W 002°09'0 0.7
2017-Oct-15 16:30N 43°59' W 002°09'0 0.6
2017-Oct-15 16:01N 43°58' W 002°09'0 0.8
2017-Oct-15 15:30N 43°58' W 002°09'0 0.6
2017-Oct-15 15:00N 43°58' W 002°09'1 0.8
2017-Oct-15 14:00N 43°57' W 002°09'0 0.6
2017-Oct-15 13:31N 43°57' W 002°09'0 0.8
2017-Oct-15 13:00N 43°56' W 002°09'0 0.8
2017-Oct-15 12:30N 43°56' W 002°10'0 0.8
2017-Oct-15 12:01N 43°55' W 002°10'0 0.7
2017-Oct-15 11:30N 43°55' W 002°10'0 0.7
2017-Oct-15 11:00N 43°55' W 002°10'0 0.7
2017-Oct-15 10:31N 43°54' W 002°10'0 0.3
2017-Oct-15 10:01N 43°54' W 002°10'0 0.7
2017-Oct-15 09:30N 43°54' W 002°10'0 0.6
2017-Oct-15 09:01N 43°54' W 002°10'0 0.2
2017-Oct-15 08:31N 43°54' W 002°10'0 0.4
2017-Oct-15 08:01N 43°55' W 002°10'0 0.8
2017-Oct-15 07:30N 43°54' W 002°10'0 0.7
2017-Oct-15 07:00N 43°54' W 002°10'0 0.6
2017-Oct-15 06:31N 43°54' W 002°10'0 0.8
2017-Oct-15 06:00N 43°54' W 002°10'0 0.6
2017-Oct-15 05:30N 43°54' W 002°10'1 1.2
2017-Oct-15 05:01N 43°55' W 002°10'1 2.5
2017-Oct-15 04:31N 43°56' W 002°10'2 3.2
2017-Oct-15 04:01N 43°57' W 002°09'1 3.0
2017-Oct-15 03:31N 43°59' W 002°09'1 2.4
2017-Oct-15 03:00N 44°00' W 002°08'1 2.4
2017-Oct-15 02:31N 44°01' W 002°08'0 0.8
2017-Oct-15 02:00N 44°01' W 002°07'0 0.8
2017-Oct-15 01:30N 44°01' W 002°07'2 3.0
2017-Oct-15 01:00N 44°02' W 002°08'1 1.5
2017-Oct-15 00:30N 44°03' W 002°09'0 0.8
2017-Oct-15 00:00N 44°02' W 002°08'0 0.7
2017-Oct-14 23:31N 44°02' W 002°08'0 0.8
2017-Oct-14 23:01N 44°02' W 002°08'3 5.6
2017-Oct-14 22:30N 43°59' W 002°09'2 3.6
2017-Oct-14 22:01N 43°57' W 002°09'0 0.7
2017-Oct-14 21:30N 43°57' W 002°09'0 0.7
2017-Oct-14 21:00N 43°57' W 002°10'0 0.3
2017-Oct-14 20:30N 43°56' W 002°09'2 3.0
2017-Oct-14 20:01N 43°58' W 002°10'0 0.6
2017-Oct-14 19:31N 43°58' W 002°09'0 0.7
2017-Oct-14 19:01N 43°59' W 002°09'0 0.8
2017-Oct-14 18:30N 43°59' W 002°09'0 0.8
2017-Oct-14 18:01N 43°59' W 002°09'0 0.7
2017-Oct-14 17:31N 43°60' W 002°09'0 0.8
2017-Oct-14 17:00N 44°00' W 002°09'0 0.6
2017-Oct-14 16:30N 44°00' W 002°09'0 0.7
2017-Oct-14 16:00N 44°01' W 002°08'0 0.7
2017-Oct-14 15:31N 44°01' W 002°08'0 0.2
2017-Oct-14 15:00N 44°01' W 002°08'2 4.1
2017-Oct-14 14:31N 43°59' W 002°09'3 6.5
2017-Oct-14 14:00N 43°56' W 002°10'0 0.9
2017-Oct-14 13:31N 43°55' W 002°10'0 0.7
2017-Oct-14 13:00N 43°55' W 002°10'0 0.4
2017-Oct-14 12:31N 43°55' W 002°10'0 0.3
2017-Oct-14 12:01N 43°55' W 002°10'1 1.7
2017-Oct-14 11:31N 43°54' W 002°10'0 0.7
2017-Oct-14 11:00N 43°54' W 002°10'0 1.0
2017-Oct-14 10:31N 43°53' W 002°10'0 0.7
2017-Oct-14 10:00N 43°53' W 002°10'0 0.1
2017-Oct-14 09:31N 43°53' W 002°10'0 0.1
2017-Oct-14 09:00N 43°53' W 002°10'0 0.2
2017-Oct-14 08:30N 43°53' W 002°10'0 0.3
2017-Oct-14 08:01N 43°53' W 002°10'0 0.1
2017-Oct-14 07:30N 43°53' W 002°10'0 0.3
2017-Oct-14 07:01N 43°53' W 002°10'0 0.4
2017-Oct-14 06:30N 43°53' W 002°10'0 0.4
2017-Oct-14 06:00N 43°53' W 002°10'0 0.6
2017-Oct-14 05:29N 43°52' W 002°10'0 0.8
2017-Oct-14 05:01N 43°53' W 002°10'2 3.7
2017-Oct-14 04:30N 43°55' W 002°10'2 3.6
2017-Oct-14 04:00N 43°56' W 002°10'2 3.6
2017-Oct-14 03:28N 43°58' W 002°09'3 3.2
2017-Oct-14 02:27N 44°01' W 002°08'1 1.7
2017-Oct-14 02:00N 44°01' W 002°08'2 3.6
2017-Oct-14 01:30N 44°00' W 002°05'0 0.6
2017-Oct-14 01:00N 44°00' W 002°06'0 0.5
2017-Oct-14 00:30N 44°00' W 002°06'0 0.6
2017-Oct-14 00:00N 43°60' W 002°06'0 0.6
2017-Oct-13 23:30N 43°60' W 002°07'0 0.8
2017-Oct-13 23:00N 43°60' W 002°07'3 6.8
2017-Oct-13 22:30N 43°57' W 002°09'4 7.7
2017-Oct-13 22:01N 43°53' W 002°10'4 7.8
2017-Oct-13 21:30N 43°49' W 002°11'4 7.7
2017-Oct-13 21:01N 43°45' W 002°13'4 7.6
2017-Oct-13 20:31N 43°42' W 002°15'4 7.4
2017-Oct-13 20:00N 43°38' W 002°16'4 7.5
2017-Oct-13 19:30N 43°35' W 002°18'4 7.2
2017-Oct-13 19:01N 43°31' W 002°19'3 6.6
2017-Oct-13 18:30N 43°28' W 002°21'3 6.8
2017-Oct-13 18:00N 43°25' W 002°22'3 6.8
2017-Oct-13 17:31N 43°22' W 002°24'2 1.0
2017-Oct-13 15:10N 43°19' W 002°25'0 0.0
2017-Oct-13 13:56N 43°19' W 002°25'0 0.0
2017-Oct-13 13:30N 43°19' W 002°25'0 0.0
2017-Oct-13 13:01N 43°19' W 002°25'0 0.0
2017-Oct-13 12:31N 43°19' W 002°25'0 0.0
2017-Oct-13 12:00N 43°19' W 002°25'0 0.0
2017-Oct-13 11:31N 43°19' W 002°25'0 0.0
2017-Oct-13 10:11N 43°19' W 002°25'0 0.0
2017-Oct-13 09:59N 43°19' W 002°25'0 0.0
2017-Oct-13 07:54N 43°20' W 002°25'0 0.1
2017-Oct-13 07:30N 43°19' W 002°25'0 0.0
2017-Oct-13 06:59N 43°19' W 002°25'0 0.0
2017-Oct-13 06:24N 43°19' W 002°25'0 0.0
2017-Oct-13 06:00N 43°19' W 002°25'0 0.0
2017-Oct-13 05:25N 43°19' W 002°25'0 0.0
2017-Oct-13 04:43N 43°19' W 002°25'0 0.0
2017-Oct-13 04:30N 43°19' W 002°25'0 0.0
2017-Oct-13 03:55N 43°19' W 002°25'0 0.0
2017-Oct-13 03:30N 43°19' W 002°25'0 0.0
2017-Oct-13 02:58N 43°19' W 002°25'0 0.0
2017-Oct-13 02:25N 43°19' W 002°25'0 0.0
2017-Oct-13 01:59N 43°19' W 002°25'0 0.0
2017-Oct-13 01:24N 43°19' W 002°25'0 0.0
2017-Oct-13 01:00N 43°19' W 002°25'0 0.0
2017-Oct-13 00:30N 43°19' W 002°25'0 0.0
2017-Oct-13 00:00N 43°19' W 002°25'0 0.0
2017-Oct-12 23:26N 43°19' W 002°25'0 0.0
2017-Oct-12 22:55N 43°19' W 002°25'0 0.0
2017-Oct-12 22:29N 43°19' W 002°25'2 3.7
2017-Oct-12 22:00N 43°21' W 002°24'2 4.2
2017-Oct-12 21:30N 43°23' W 002°24'2 3.1
2017-Oct-12 21:00N 43°25' W 002°24'1 2.7
2017-Oct-12 20:30N 43°26' W 002°24'1 2.4
2017-Oct-12 20:00N 43°27' W 002°24'2 4.8
2017-Oct-12 19:31N 43°30' W 002°24'1 2.5
2017-Oct-12 19:00N 43°31' W 002°23'0 0.6
2017-Oct-12 18:31N 43°31' W 002°23'0 1.0
2017-Oct-12 18:00N 43°32' W 002°23'0 0.7
2017-Oct-12 17:30N 43°32' W 002°23'1 3.0
2017-Oct-12 17:00N 43°31' W 002°23'0 0.4
2017-Oct-12 16:30N 43°30' W 002°23'0 0.4
2017-Oct-12 16:00N 43°31' W 002°23'0 0.7
2017-Oct-12 15:30N 43°31' W 002°22'0 0.9
2017-Oct-12 15:00N 43°31' W 002°22'0 0.6
2017-Oct-12 14:30N 43°31' W 002°22'2 3.7
2017-Oct-12 14:01N 43°32' W 002°24'0 0.4
2017-Oct-12 13:30N 43°32' W 002°24'0 0.6
2017-Oct-12 13:00N 43°31' W 002°24'0 0.7
2017-Oct-12 12:30N 43°31' W 002°25'0 0.7
2017-Oct-12 12:00N 43°31' W 002°25'0 0.9
2017-Oct-12 11:30N 43°32' W 002°26'0 0.8
2017-Oct-12 11:00N 43°32' W 002°26'0 0.7
2017-Oct-12 10:31N 43°32' W 002°26'0 0.7
2017-Oct-12 10:01N 43°32' W 002°27'0 0.3
2017-Oct-12 09:31N 43°33' W 002°27'0 0.1
2017-Oct-12 09:01N 43°32' W 002°27'0 0.1
2017-Oct-12 08:30N 43°33' W 002°27'0 0.2
2017-Oct-12 08:01N 43°32' W 002°27'0 0.2
2017-Oct-12 07:31N 43°32' W 002°27'0 0.3
2017-Oct-12 07:01N 43°33' W 002°26'0 0.0
2017-Oct-11 23:04N 43°33' W 002°27'0 0.1
2017-Oct-11 23:00N 43°33' W 002°27'0 0.3
2017-Oct-11 22:31N 43°32' W 002°27'0 0.2
2017-Oct-11 22:01N 43°32' W 002°27'0 0.2
2017-Oct-11 21:30N 43°32' W 002°27'0 0.2
2017-Oct-11 21:01N 43°32' W 002°27'2 4.9
2017-Oct-11 20:31N 43°32' W 002°24'2 4.2
2017-Oct-11 20:00N 43°31' W 002°21'1 2.7
2017-Oct-11 19:31N 43°32' W 002°21'0 0.7
2017-Oct-11 19:01N 43°32' W 002°21'0 0.7
2017-Oct-11 18:30N 43°32' W 002°22'0 0.7
2017-Oct-11 18:00N 43°31' W 002°22'0 0.6
2017-Oct-11 17:31N 43°31' W 002°22'0 0.8
2017-Oct-11 17:01N 43°31' W 002°22'4 0.2
2017-Oct-11 00:00N 43°32' W 002°27'0 0.3
2017-Oct-10 23:30N 43°32' W 002°27'3 5.2
2017-Oct-10 23:00N 43°33' W 002°30'4 7.4
2017-Oct-10 22:30N 43°33' W 002°35'4 7.2
2017-Oct-10 22:00N 43°34' W 002°40'4 7.1
2017-Oct-10 21:30N 43°34' W 002°45'4 7.1
2017-Oct-10 21:00N 43°34' W 002°50'4 7.2
2017-Oct-10 20:30N 43°35' W 002°55'1 3.0
2017-Oct-10 20:00N 43°35' W 002°57'0 0.6
2017-Oct-10 19:30N 43°35' W 002°57'0 0.6
2017-Oct-10 19:00N 43°36' W 002°56'0 0.9
2017-Oct-10 18:30N 43°36' W 002°56'0 0.7
2017-Oct-10 18:00N 43°36' W 002°56'0 0.4
2017-Oct-10 17:30N 43°37' W 002°56'0 0.6
2017-Oct-10 16:59N 43°37' W 002°57'0 0.7
2017-Oct-10 16:30N 43°37' W 002°57'0 0.6
2017-Oct-10 16:00N 43°37' W 002°58'2 2.9
2017-Oct-10 15:20N 43°36' W 003°00'1 2.3
2017-Oct-10 14:41N 43°36' W 003°02'0 0.7
2017-Oct-10 14:00N 43°36' W 003°03'0 0.8
2017-Oct-10 13:30N 43°36' W 003°04'1 0.9
2017-Oct-10 12:51N 43°36' W 003°04'0 0.8
2017-Oct-10 12:30N 43°36' W 003°05'0 0.9
2017-Oct-10 12:00N 43°36' W 003°05'0 0.7
2017-Oct-10 11:30N 43°36' W 003°06'0 0.9
2017-Oct-10 11:00N 43°36' W 003°07'0 0.8
2017-Oct-10 10:30N 43°36' W 003°07'0 0.5
2017-Oct-10 10:00N 43°36' W 003°07'0 0.3
2017-Oct-10 09:30N 43°36' W 003°08'0 0.1
2017-Oct-10 09:00N 43°36' W 003°08'0 0.1
2017-Oct-10 08:30N 43°36' W 003°08'0 0.1
2017-Oct-10 08:00N 43°36' W 003°08'0 0.3
2017-Oct-10 07:30N 43°36' W 003°08'0 0.6
2017-Oct-10 07:00N 43°36' W 003°07'0 0.9
2017-Oct-10 06:30N 43°36' W 003°08'0 0.2
2017-Oct-10 06:00N 43°36' W 003°08'3 5.3
2017-Oct-10 05:30N 43°36' W 003°04'3 7.1
2017-Oct-10 05:00N 43°36' W 002°59'2 4.1
2017-Oct-10 04:30N 43°35' W 002°56'1 2.9
2017-Oct-10 04:00N 43°37' W 002°56'2 4.6
2017-Oct-10 03:28N 43°37' W 002°60'3 5.6
2017-Oct-10 02:59N 43°36' W 003°03'2 3.5
2017-Oct-10 02:30N 43°36' W 003°06'2 3.0
2017-Oct-10 02:00N 43°36' W 003°08'0 0.2
2017-Oct-10 01:30N 43°36' W 003°08'0 0.6
2017-Oct-10 01:00N 43°36' W 003°07'0 0.3
2017-Oct-10 00:29N 43°36' W 003°07'0 0.3
2017-Oct-10 00:00N 43°36' W 003°07'0 0.8
2017-Oct-09 23:30N 43°36' W 003°08'0 0.3
2017-Oct-09 23:00N 43°36' W 003°08'0 0.4
2017-Oct-09 22:30N 43°36' W 003°08'0 0.6
2017-Oct-09 22:00N 43°36' W 003°08'0 0.5
2017-Oct-09 21:30N 43°36' W 003°08'1 2.5
2017-Oct-09 21:00N 43°36' W 003°06'3 5.0
2017-Oct-09 20:30N 43°37' W 003°02'0 0.9
2017-Oct-09 20:00N 43°36' W 003°03'3 6.9
2017-Oct-09 19:30N 43°36' W 003°08'4 7.2
2017-Oct-09 18:59N 43°34' W 003°12'3 6.9
2017-Oct-09 18:30N 43°32' W 003°15'3 6.8
2017-Oct-09 18:00N 43°30' W 003°19'3 6.9
2017-Oct-09 17:30N 43°28' W 003°23'3 6.4
2017-Oct-09 17:00N 43°26' W 003°27'1 1.5
2017-Oct-09 16:27N 43°27' W 003°28'0 0.0
2017-Oct-09 16:00N 43°27' W 003°28'0 0.0
2017-Oct-09 15:30N 43°27' W 003°28'0 0.0
2017-Oct-09 15:00N 43°27' W 003°28'0 0.0
2017-Oct-09 14:29N 43°27' W 003°28'0 0.0
2017-Oct-09 14:00N 43°27' W 003°28'0 0.0
2017-Oct-09 13:30N 43°27' W 003°28'0 0.0
2017-Oct-09 13:00N 43°27' W 003°28'0 0.0
2017-Oct-09 12:30N 43°27' W 003°28'0 0.0
2017-Oct-09 12:00N 43°27' W 003°28'0 0.0
2017-Oct-09 11:30N 43°27' W 003°28'0 0.0
2017-Oct-09 10:59N 43°27' W 003°28'0 0.0
2017-Oct-09 10:30N 43°27' W 003°28'0 0.0
2017-Oct-09 10:00N 43°27' W 003°28'0 0.0
2017-Oct-09 09:30N 43°27' W 003°28'0 0.0
2017-Oct-09 08:59N 43°27' W 003°28'0 0.0
2017-Oct-09 08:30N 43°27' W 003°28'0 0.0
2017-Oct-09 08:00N 43°27' W 003°28'  

Dump ship's entire track history